^^
Saratoga-Weather Station Historical Data
Daily Summary for March 6, 2021 Units:  English    Metric   Both
Daily Weekly Monthly Yearly Custom
  High: Low: Average:
Temperature: 83.1 °F 55 °F 68.2 °F
Dew Point: 61.7 °F 53.4 °F 57.6 °F
Humidity: 96% 41% 72%
Wind Speed: 6mph 0mph 0.6mph
Wind Gust: 7mph - -
Wind- - SSE
Pressure: 30.2 in 30.1 in -
Precipitation: 0 in    
Historical Graphs
 
 
Tabular Data for March 6, 2021
Time Temperature Dew Point Pressure Wind Wind Speed Wind Gust Humidity Rainfall Rate (Hourly) solar
00:00 62.1 °F 56.8 °F 30.1 in Calm   1 mph 83% 0 in 0 W/m2
00:05 62.1 °F 57.2 °F 30.1 in Calm     84% 0 in 0 W/m2
00:10 61.9 °F 57 °F 30.1 in Calm     84% 0 in 0 W/m2
00:15 61.7 °F 56.8 °F 30.1 in Calm     84% 0 in 0 W/m2
00:20 61.5 °F 57 °F 30.1 in Calm     85% 0 in 0 W/m2
00:25 61.5 °F 57 °F 30.1 in Calm     85% 0 in 0 W/m2
00:30 61.3 °F 56.8 °F 30.1 in Calm     85% 0 in 0 W/m2
00:35 61.3 °F 56.8 °F 30.1 in Calm     85% 0 in 0 W/m2
00:40 61.2 °F 57 °F 30.1 in Calm     86% 0 in 0 W/m2
00:45 61 °F 56.8 °F 30.1 in Calm     86% 0 in 0 W/m2
00:50 61 °F 56.8 °F 30.1 in Calm     86% 0 in 0 W/m2
00:55 60.6 °F 56.5 °F 30.1 in Calm     86% 0 in 0 W/m2
01:01 60.6 °F 56.7 °F 30.1 in Calm     87% 0 in 0 W/m2
01:06 60.4 °F 56.5 °F 30.1 in Calm     87% 0 in 0 W/m2
01:11 60.4 °F 56.5 °F 30.1 in Calm     87% 0 in 0 W/m2
01:16 60.4 °F 56.5 °F 30.1 in Calm     87% 0 in 0 W/m2
01:21 60.3 °F 56.3 °F 30.1 in Calm     87% 0 in 0 W/m2
01:26 60.3 °F 56.7 °F 30.1 in Calm     88% 0 in 0 W/m2
01:31 60.1 °F 56.5 °F 30.1 in Calm     88% 0 in 0 W/m2
01:36 60.1 °F 56.5 °F 30.1 in Calm     88% 0 in 0 W/m2
01:41 59.7 °F 56.1 °F 30.1 in Calm     88% 0 in 0 W/m2
01:46 59.7 °F 56.1 °F 30.1 in Calm     88% 0 in 0 W/m2
01:51 59.5 °F 56.3 °F 30.1 in Calm     89% 0 in 0 W/m2
01:56 59.5 °F 56.3 °F 30.1 in Calm     89% 0 in 0 W/m2
02:01 59.4 °F 56.1 °F 30.1 in Calm     89% 0 in 0 W/m2
02:06 59.2 °F 55.9 °F 30.1 in Calm     89% 0 in 0 W/m2
02:11 59 °F 55.8 °F 30.1 in Calm     89% 0 in 0 W/m2
02:16 58.8 °F 55.6 °F 30.1 in Calm     89% 0 in 0 W/m2
02:21 58.6 °F 55.8 °F 30.1 in Calm     90% 0 in 0 W/m2
02:26 58.6 °F 55.8 °F 30.1 in Calm     90% 0 in 0 W/m2
02:31 58.5 °F 55.8 °F 30.1 in Calm     91% 0 in 0 W/m2
02:36 58.5 °F 55.6 °F 30.1 in Calm     90% 0 in 0 W/m2
02:41 58.3 °F 55.6 °F 30.1 in Calm     91% 0 in 0 W/m2
02:46 58.1 °F 55.4 °F 30.1 in Calm     91% 0 in 0 W/m2
02:51 57.9 °F 55.2 °F 30.1 in Calm     91% 0 in 0 W/m2
02:56 57.9 °F 55.2 °F 30.1 in Calm     91% 0 in 0 W/m2
03:01 57.7 °F 55.4 °F 30.1 in Calm     92% 0 in 0 W/m2
03:06 57.7 °F 55.4 °F 30.1 in Calm     92% 0 in 0 W/m2
03:11 57.6 °F 55.2 °F 30.1 in Calm     92% 0 in 0 W/m2
03:16 57.6 °F 55.2 °F 30.1 in Calm     92% 0 in 0 W/m2
03:21 57.6 °F 55.2 °F 30.1 in Calm     92% 0 in 0 W/m2
03:26 57.4 °F 55 °F 30.1 in Calm     92% 0 in 0 W/m2
03:31 57.4 °F 55 °F 30.1 in Calm     92% 0 in 0 W/m2
03:36 57.4 °F 55.4 °F 30.1 in Calm     93% 0 in 0 W/m2
03:41 57.2 °F 55.2 °F 30.1 in Calm     93% 0 in 0 W/m2
03:46 57.2 °F 55.2 °F 30.1 in Calm     93% 0 in 0 W/m2
03:51 57.2 °F 55.2 °F 30.1 in Calm     93% 0 in 0 W/m2
03:56 57.2 °F 55.2 °F 30.1 in Calm     93% 0 in 0 W/m2
04:01 57.2 °F 55.4 °F 30.1 in Calm     94% 0 in 0 W/m2
04:06 57.2 °F 55.2 °F 30.1 in Calm     93% 0 in 0 W/m2
04:11 57 °F 55 °F 30.1 in Calm     93% 0 in 0 W/m2
04:16 57 °F 55.2 °F 30.1 in Calm     94% 0 in 0 W/m2
04:21 57 °F 55.2 °F 30.1 in Calm     94% 0 in 0 W/m2
04:26 57 °F 55.2 °F 30.1 in Calm     94% 0 in 0 W/m2
04:31 57 °F 55.2 °F 30.1 in Calm     94% 0 in 0 W/m2
04:36 57 °F 55.2 °F 30.1 in Calm     94% 0 in 0 W/m2
04:41 56.8 °F 55.2 °F 30.1 in Calm     94% 0 in 0 W/m2
04:46 56.8 °F 55.2 °F 30.1 in Calm     94% 0 in 0 W/m2
04:51 56.8 °F 55.2 °F 30.1 in Calm     94% 0 in 0 W/m2
04:56 56.8 °F 55.2 °F 30.1 in Calm     94% 0 in 0 W/m2
05:01 56.7 °F 55 °F 30.1 in Calm     94% 0 in 0 W/m2
05:06 56.7 °F 55 °F 30.1 in Calm     94% 0 in 0 W/m2
05:11 56.7 °F 55 °F 30.1 in Calm     94% 0 in 0 W/m2
05:16 56.7 °F 55 °F 30.1 in Calm     94% 0 in 0 W/m2
05:21 56.7 °F 55 °F 30.1 in Calm     94% 0 in 0 W/m2
05:26 56.5 °F 54.9 °F 30.1 in Calm     94% 0 in 0 W/m2
05:31 56.5 °F 54.9 °F 30.1 in Calm     94% 0 in 0 W/m2
05:36 56.5 °F 54.9 °F 30.1 in Calm     94% 0 in 0 W/m2
05:41 56.3 °F 54.7 °F 30.1 in Calm     94% 0 in 0 W/m2
05:46 56.1 °F 54.5 °F 30.1 in Calm     94% 0 in 0 W/m2
05:51 56.1 °F 54.5 °F 30.1 in Calm     94% 0 in 0 W/m2
05:56 56.1 °F 54.5 °F 30.1 in Calm     94% 0 in 0 W/m2
06:01 56.1 °F 54.5 °F 30.1 in Calm     94% 0 in 0 W/m2
06:06 56.1 °F 54.5 °F 30.1 in Calm     94% 0 in 0 W/m2
06:11 55.9 °F 54.3 °F 30.1 in Calm     94% 0 in 0 W/m2
06:17 55.9 °F 54.3 °F 30.1 in Calm     94% 0 in 0 W/m2
06:22 55.9 °F 54.3 °F 30.1 in Calm     94% 0 in 0 W/m2
06:27 55.8 °F 54.1 °F 30.1 in Calm     94% 0 in 0 W/m2
06:32 55.8 °F 54.1 °F 30.1 in Calm     94% 0 in 0 W/m2
06:37 55.6 °F 54 °F 30.1 in Calm     94% 0 in 0 W/m2
06:42 55.6 °F 54 °F 30.1 in Calm     94% 0 in 0 W/m2
06:47 55.4 °F 53.8 °F 30.1 in Calm     94% 0 in 0 W/m2
06:52 55.2 °F 53.6 °F 30.1 in Calm     94% 0 in 0 W/m2
06:57 55.2 °F 53.6 °F 30.1 in Calm     94% 0 in 0 W/m2
07:02 55 °F 53.4 °F 30.1 in Calm     94% 0 in 5 W/m2
07:07 55 °F 53.6 °F 30.1 in Calm     95% 0 in 5 W/m2
07:12 55 °F 53.6 °F 30.2 in Calm     95% 0 in 9 W/m2
07:17 55 °F 53.6 °F 30.2 in Calm     95% 0 in 11 W/m2
07:22 55 °F 53.6 °F 30.2 in South 0.9 mph 1 mph 95% 0 in 12 W/m2
07:27 55.2 °F 53.8 °F 30.2 in Calm     95% 0 in 14 W/m2
07:32 55.2 °F 53.8 °F 30.2 in Calm     95% 0 in 16 W/m2
07:37 55.2 °F 53.8 °F 30.2 in Calm     95% 0 in 19 W/m2
07:42 55.2 °F 53.8 °F 30.2 in Calm     95% 0 in 21 W/m2
07:47 55.4 °F 54 °F 30.2 in Calm     95% 0 in 23 W/m2
07:52 55.6 °F 54.1 °F 30.2 in Calm     95% 0 in 25 W/m2
07:57 55.6 °F 54.1 °F 30.2 in Calm     95% 0 in 26 W/m2
08:02 55.8 °F 54.3 °F 30.2 in Calm   1 mph 95% 0 in 28 W/m2
08:07 55.9 °F 54.9 °F 30.2 in Calm     96% 0 in 30 W/m2
08:12 56.1 °F 55 °F 30.2 in Calm   1 mph 96% 0 in 33 W/m2
08:17 56.3 °F 55.2 °F 30.2 in Calm     96% 0 in 84 W/m2
08:22 56.7 °F 55.6 °F 30.2 in Calm     96% 0 in 111 W/m2
08:27 57 °F 55.9 °F 30.2 in Calm     96% 0 in 123 W/m2
08:32 57.6 °F 56.5 °F 30.2 in Calm     96% 0 in 141 W/m2
08:37 57.9 °F 56.8 °F 30.2 in Calm   1 mph 96% 0 in 153 W/m2
08:42 58.5 °F 57.4 °F 30.2 in Calm     96% 0 in 171 W/m2
08:47 58.8 °F 57.7 °F 30.2 in Calm     96% 0 in 183 W/m2
08:52 59.5 °F 58.5 °F 30.2 in Calm   1 mph 96% 0 in 197 W/m2
08:57 60.1 °F 58.6 °F 30.2 in Calm   2 mph 95% 0 in 216 W/m2
09:02 60.8 °F 59 °F 30.2 in Calm   1 mph 94% 0 in 47 W/m2
09:07 61.5 °F 59.5 °F 30.2 in East 2 mph 2 mph 93% 0 in 47 W/m2
09:12 62.2 °F 59.2 °F 30.2 in Calm   1 mph 90% 0 in 257 W/m2
09:17 63 °F 59 °F 30.2 in Calm   1 mph 87% 0 in 271 W/m2
09:22 63.5 °F 58.8 °F 30.2 in Calm     85% 0 in 287 W/m2
09:27 64 °F 58.8 °F 30.2 in Calm     83% 0 in 301 W/m2
09:32 64.8 °F 59.2 °F 30.2 in Calm   2 mph 82% 0 in 318 W/m2
09:37 65.1 °F 58.8 °F 30.2 in Calm     80% 0 in 329 W/m2
09:42 65.7 °F 59.4 °F 30.2 in Calm   1 mph 80% 0 in 346 W/m2
09:47 66 °F 59.4 °F 30.2 in Calm     79% 0 in 359 W/m2
09:52 66.6 °F 59.9 °F 30.2 in Calm     79% 0 in 371 W/m2
09:57 67.1 °F 60.1 °F 30.2 in Calm     78% 0 in 385 W/m2
10:02 67.6 °F 60.3 °F 30.2 in Calm   2 mph 77% 0 in 397 W/m2
10:07 68.2 °F 60.3 °F 30.2 in Calm     76% 0 in 410 W/m2
10:12 68.4 °F 60.1 °F 30.2 in Calm   2 mph 75% 0 in 424 W/m2
10:17 68.5 °F 59.9 °F 30.2 in NE 0.9 mph 1 mph 74% 0 in 436 W/m2
10:22 69.1 °F 60.8 °F 30.2 in East 0.9 mph 2 mph 75% 0 in 452 W/m2
10:27 69.4 °F 60.8 °F 30.2 in Calm   3 mph 74% 0 in 464 W/m2
10:32 70.2 °F 61.5 °F 30.2 in East 0.9 mph 3 mph 74% 0 in 478 W/m2
10:37 70.3 °F 60.4 °F 30.2 in East 2 mph 2 mph 71% 0 in 487 W/m2
10:42 70.7 °F 60.8 °F 30.2 in Calm   2 mph 71% 0 in 501 W/m2
10:47 70.9 °F 60.6 °F 30.2 in NE 0.9 mph 2 mph 70% 0 in 510 W/m2
10:52 71.2 °F 60.6 °F 30.2 in ENE 2 mph 2 mph 69% 0 in 524 W/m2
10:57 71.4 °F 60.3 °F 30.2 in NE 0.9 mph 2 mph 68% 0 in 533 W/m2
11:02 71.8 °F 60.3 °F 30.2 in Calm   1 mph 67% 0 in 541 W/m2
11:07 72 °F 59.9 °F 30.2 in Calm   2 mph 66% 0 in 554 W/m2
11:12 72.3 °F 60.8 °F 30.2 in SE 2.9 mph 3 mph 67% 0 in 566 W/m2
11:17 72.7 °F 61.2 °F 30.2 in Calm   1 mph 67% 0 in 573 W/m2
11:22 73 °F 60.1 °F 30.2 in NNW 2.9 mph 4 mph 64% 0 in 585 W/m2
11:27 72.9 °F 59.9 °F 30.2 in NNE 0.9 mph 2 mph 64% 0 in 594 W/m2
11:32 73.2 °F 61.2 °F 30.2 in East 0.9 mph 3 mph 66% 0 in 603 W/m2
11:37 73.8 °F 60.8 °F 30.2 in East 4 mph 6 mph 64% 0 in 608 W/m2
11:42 74.3 °F 60.4 °F 30.2 in Calm   2 mph 62% 0 in 617 W/m2
11:47 74.7 °F 61.2 °F 30.2 in SE 2 mph 6 mph 63% 0 in 626 W/m2
11:52 75.4 °F 61 °F 30.2 in East 0.9 mph 3 mph 61% 0 in 636 W/m2
11:57 75.7 °F 60.8 °F 30.2 in SE 2 mph 3 mph 60% 0 in 642 W/m2
12:02 76.3 °F 60.4 °F 30.2 in ESE 2.9 mph 4 mph 58% 0 in 650 W/m2
12:07 76.6 °F 59.7 °F 30.2 in SSE 2.9 mph 3 mph 56% 0 in 659 W/m2
12:12 77 °F 60.6 °F 30.2 in Calm   3 mph 57% 0 in 666 W/m2
12:17 77.4 °F 61 °F 30.2 in SSW 0.9 mph 2 mph 57% 0 in 673 W/m2
12:22 77.7 °F 60.8 °F 30.2 in SE 0.9 mph 3 mph 56% 0 in 680 W/m2
12:28 78.1 °F 60.6 °F 30.2 in NNW 0.9 mph 2 mph 55% 0 in 687 W/m2
12:33 78.4 °F 61 °F 30.2 in NE 0.9 mph 3 mph 55% 0 in 693 W/m2
12:38 78.8 °F 61.7 °F 30.2 in ESE 4 mph 4 mph 56% 0 in 696 W/m2
12:43 79 °F 61.5 °F 30.2 in NE 0.9 mph 2 mph 55% 0 in 703 W/m2
12:48 79.3 °F 60.3 °F 30.2 in NNE 2.9 mph 5 mph 52% 0 in 705 W/m2
12:53 79.3 °F 60.3 °F 30.2 in WSW 2 mph 2 mph 52% 0 in 691 W/m2
12:58 79.3 °F 59.7 °F 30.2 in NNW 0.9 mph 5 mph 51% 0 in 682 W/m2
13:03 79.5 °F 60.4 °F 30.2 in SSW 0.9 mph 3 mph 52% 0 in 700 W/m2
13:08 79.5 °F 59.7 °F 30.2 in ENE 2 mph 5 mph 51% 0 in 719 W/m2
13:13 79.7 °F 59.9 °F 30.2 in NNW 2.9 mph 3 mph 51% 0 in 721 W/m2
13:18 80.1 °F 60.8 °F 30.2 in Calm   1 mph 52% 0 in 724 W/m2
13:23 80.4 °F 60.1 °F 30.2 in East 2.9 mph 6 mph 50% 0 in 729 W/m2
13:28 81 °F 59.4 °F 30.2 in NE 0.9 mph 3 mph 48% 0 in 717 W/m2
13:33 81.1 °F 59 °F 30.2 in ENE 2 mph 6 mph 47% 0 in 722 W/m2
13:38 81.1 °F 57.2 °F 30.2 in Calm   3 mph 44% 0 in 724 W/m2
13:43 81.1 °F 56.5 °F 30.2 in NNW 0.9 mph 3 mph 43% 0 in 721 W/m2
13:48 81.3 °F 57.9 °F 30.2 in ESE 2.9 mph 6 mph 45% 0 in 733 W/m2
13:53 81.1 °F 59 °F 30.2 in ESE 0.9 mph 1 mph 47% 0 in 731 W/m2
13:58 81.1 °F 59 °F 30.2 in East 2 mph 4 mph 47% 0 in 726 W/m2
14:03 81.3 °F 57.4 °F 30.2 in East 2.9 mph 4 mph 44% 0 in 733 W/m2
14:08 81.3 °F 58.6 °F 30.2 in Calm   2 mph 46% 0 in 722 W/m2
14:13 81.7 °F 58.8 °F 30.2 in NNW 2 mph 3 mph 46% 0 in 728 W/m2
14:18 81.9 °F 59 °F 30.2 in ENE 2 mph 4 mph 46% 0 in 673 W/m2
14:23 81.9 °F 57.7 °F 30.2 in NE 2.9 mph 6 mph 44% 0 in 652 W/m2
14:28 81.9 °F 59.7 °F 30.2 in ESE 0.9 mph 3 mph 47% 0 in 661 W/m2
14:33 81.9 °F 59.7 °F 30.2 in ENE 2 mph 6 mph 47% 0 in 664 W/m2
14:38 81.7 °F 60.1 °F 30.2 in SE 0.9 mph 2 mph 48% 0 in 666 W/m2
14:43 82 °F 59.2 °F 30.2 in NE 2 mph 4 mph 46% 0 in 650 W/m2
14:48 81.7 °F 58.8 °F 30.2 in NE 6 mph 7 mph 46% 0 in 127 W/m2
14:53 81.1 °F 58.5 °F 30.2 in NE 0.9 mph 4 mph 46% 0 in 733 W/m2
14:58 81.1 °F 58.5 °F 30.2 in SSE 0.9 mph 4 mph 46% 0 in 132 W/m2
15:03 81 °F 58.3 °F 30.2 in North 0.9 mph 1 mph 46% 0 in 125 W/m2
15:08 80.2 °F 59.9 °F 30.2 in West 0.9 mph 4 mph 50% 0 in 204 W/m2
15:13 80.1 °F 60.3 °F 30.2 in WSW 0.9 mph 2 mph 51% 0 in 580 W/m2
15:18 80.4 °F 57.7 °F 30.2 in ESE 0.9 mph 2 mph 46% 0 in 561 W/m2
15:23 81 °F 58.3 °F 30.2 in Calm   3 mph 46% 0 in 594 W/m2
15:28 81.1 °F 58.5 °F 30.2 in ENE 2.9 mph 3 mph 46% 0 in 661 W/m2
15:33 81.3 °F 58.6 °F 30.2 in ENE 0.9 mph 2 mph 46% 0 in 705 W/m2
15:38 81.9 °F 57.7 °F 30.2 in NNW 0.9 mph 3 mph 44% 0 in 705 W/m2
15:43 82.2 °F 58.1 °F 30.2 in Calm   2 mph 44% 0 in 642 W/m2
15:48 82.9 °F 58.1 °F 30.2 in East 2 mph 2 mph 43% 0 in 584 W/m2
15:53 83.1 °F 57.6 °F 30.2 in ENE 4 mph 7 mph 42% 0 in 279 W/m2
15:58 82.6 °F 56.5 °F 30.2 in SE 2.9 mph 3 mph 41% 0 in 185 W/m2
16:03 82 °F 56.7 °F 30.2 in NNW 0.9 mph 2 mph 42% 0 in 158 W/m2
16:08 81.7 °F 57 °F 30.2 in Calm   1 mph 43% 0 in 158 W/m2
16:13 81.3 °F 56.1 °F 30.2 in NE 2.9 mph 4 mph 42% 0 in 469 W/m2
16:18 81.3 °F 56.7 °F 30.2 in NNE 2 mph 2 mph 43% 0 in 452 W/m2
16:23 81.5 °F 56.8 °F 30.2 in ENE 0.9 mph 4 mph 43% 0 in 387 W/m2
16:28 81.7 °F 57.6 °F 30.2 in Calm     44% 0 in 446 W/m2
16:33 81.9 °F 59 °F 30.2 in WNW 2 mph 5 mph 46% 0 in 471 W/m2
16:38 81.9 °F 57.7 °F 30.2 in West 2 mph 3 mph 44% 0 in 415 W/m2
16:43 81.9 °F 57.7 °F 30.2 in NNW 2.9 mph 7 mph 44% 0 in 396 W/m2
16:48 82 °F 56.7 °F 30.2 in NNW 0.9 mph 5 mph 42% 0 in 396 W/m2
16:53 82 °F 55.9 °F 30.2 in NE 0.9 mph 3 mph 41% 0 in 258 W/m2
16:58 82 °F 57.4 °F 30.2 in NNW 0.9 mph 5 mph 43% 0 in 248 W/m2
17:03 81.9 °F 56.5 °F 30.2 in East 2 mph 4 mph 42% 0 in 336 W/m2
17:08 81.9 °F 57.2 °F 30.2 in NW 0.9 mph 3 mph 43% 0 in 346 W/m2
17:13 81.9 °F 56.5 °F 30.2 in NE 0.9 mph 4 mph 42% 0 in 292 W/m2
17:18 81.7 °F 58.8 °F 30.2 in West 2.9 mph 3 mph 46% 0 in 320 W/m2
17:23 81.5 °F 57.6 °F 30.2 in WNW 2.9 mph 3 mph 44% 0 in 306 W/m2
17:28 81.3 °F 57.9 °F 30.2 in NW 0.9 mph 3 mph 45% 0 in 294 W/m2
17:33 81.3 °F 57.4 °F 30.2 in ENE 2.9 mph 5 mph 44% 0 in 297 W/m2
17:38 81.3 °F 56.7 °F 30.2 in Calm   4 mph 43% 0 in 302 W/m2
17:43 81.3 °F 59.7 °F 30.1 in NNW 0.9 mph 5 mph 48% 0 in 246 W/m2
17:48 81.1 °F 57.2 °F 30.2 in Calm   1 mph 44% 0 in 285 W/m2
17:53 81.1 °F 57.2 °F 30.2 in ENE 2 mph 2 mph 44% 0 in 272 W/m2
17:58 81.1 °F 56.5 °F 30.2 in ENE 4 mph 5 mph 43% 0 in 257 W/m2
18:04 81.1 °F 57.7 °F 30.2 in SE 0.9 mph 2 mph 45% 0 in 190 W/m2
18:09 81 °F 57.6 °F 30.2 in Calm   4 mph 45% 0 in 156 W/m2
18:14 80.4 °F 56.5 °F 30.2 in NNE 0.9 mph 2 mph 44% 0 in 155 W/m2
18:19 80.4 °F 57.7 °F 30.2 in Calm   1 mph 46% 0 in 169 W/m2
18:24 80.2 °F 58.1 °F 30.2 in SE 0.9 mph 4 mph 47% 0 in 218 W/m2
18:29 80.2 °F 58.1 °F 30.2 in West 0.9 mph 3 mph 47% 0 in 204 W/m2
18:34 80.2 °F 58.8 °F 30.2 in East 2 mph 4 mph 48% 0 in 190 W/m2
18:39 80.2 °F 58.1 °F 30.2 in East 0.9 mph 2 mph 47% 0 in 211 W/m2
18:44 80.1 °F 58.1 °F 30.2 in East 2.9 mph 4 mph 47% 0 in 165 W/m2
18:49 79.9 °F 56.7 °F 30.2 in North 2.9 mph 4 mph 45% 0 in 158 W/m2
18:54 80.1 °F 58.6 °F 30.2 in Calm   2 mph 48% 0 in 135 W/m2
18:59 80.1 °F 58.6 °F 30.2 in NNE 0.9 mph 1 mph 48% 0 in 132 W/m2
19:04 79.9 °F 59 °F 30.2 in Calm   2 mph 49% 0 in 105 W/m2
19:09 79.9 °F 60.1 °F 30.2 in SE 2 mph 2 mph 51% 0 in 77 W/m2
19:14 79.2 °F 59 °F 30.2 in Calm   2 mph 50% 0 in 69 W/m2
19:19 78.6 °F 58.5 °F 30.2 in WSW 2 mph 4 mph 50% 0 in 62 W/m2
19:24 78.1 °F 57.9 °F 30.2 in West 2 mph 3 mph 50% 0 in 47 W/m2
19:29 77.7 °F 58.1 °F 30.2 in Calm   4 mph 51% 0 in 39 W/m2
19:34 77.5 °F 58.5 °F 30.2 in Calm   2 mph 52% 0 in 32 W/m2
19:39 77 °F 59 °F 30.2 in WSW 0.9 mph 1 mph 54% 0 in 25 W/m2
19:44 76.3 °F 60.4 °F 30.2 in WSW 2 mph 2 mph 58% 0 in 18 W/m2
19:49 75.6 °F 60.3 °F 30.2 in Calm   1 mph 59% 0 in 12 W/m2
19:54 74.8 °F 60.1 °F 30.2 in Calm   2 mph 60% 0 in 9 W/m2
19:59 73.9 °F 60.1 °F 30.2 in WSW 0.9 mph 1 mph 62% 0 in 5 W/m2
20:04 73.4 °F 60.1 °F 30.2 in WSW 0.9 mph 1 mph 63% 0 in 0 W/m2
20:09 72.9 °F 59.9 °F 30.2 in WSW 2 mph 2 mph 64% 0 in 0 W/m2
20:14 72.3 °F 59.5 °F 30.2 in Calm   1 mph 64% 0 in 0 W/m2
20:19 71.8 °F 59.4 °F 30.2 in WSW 0.9 mph 2 mph 65% 0 in 0 W/m2
20:24 71.2 °F 59.4 °F 30.2 in WSW 0.9 mph 2 mph 66% 0 in 0 W/m2
20:29 70.9 °F 58.5 °F 30.2 in SSW 2.9 mph 4 mph 65% 0 in 0 W/m2
20:34 70.9 °F 59 °F 30.2 in Calm   3 mph 66% 0 in 0 W/m2
20:39 70.7 °F 58.8 °F 30.2 in SSW 0.9 mph 2 mph 66% 0 in 0 W/m2
20:44 70.5 °F 59 °F 30.2 in SSW 0.9 mph 1 mph 67% 0 in 0 W/m2
20:49 70.3 °F 58.8 °F 30.2 in WSW 2 mph 3 mph 67% 0 in 0 W/m2
20:54 70.2 °F 58.6 °F 30.2 in WSW 0.9 mph 2 mph 67% 0 in 0 W/m2
20:59 70 °F 59 °F 30.2 in Calm   3 mph 68% 0 in 0 W/m2
21:04 69.6 °F 58.1 °F 30.2 in Calm     67% 0 in 0 W/m2
21:09 69.4 °F 58.5 °F 30.2 in Calm     68% 0 in 0 W/m2
21:14 69.1 °F 58.1 °F 30.2 in Calm     68% 0 in 0 W/m2
21:19 68.7 °F 58.1 °F 30.2 in Calm     69% 0 in 0 W/m2
21:24 68.5 °F 58.3 °F 30.2 in Calm     70% 0 in 0 W/m2
21:29 68.5 °F 58.3 °F 30.2 in Calm     70% 0 in 0 W/m2
21:34 68.2 °F 58.1 °F 30.2 in Calm     70% 0 in 0 W/m2
21:39 67.8 °F 58.1 °F 30.2 in Calm     71% 0 in 0 W/m2
21:44 67.6 °F 58.3 °F 30.2 in Calm     72% 0 in 0 W/m2
21:49 67.5 °F 58.1 °F 30.2 in Calm     72% 0 in 0 W/m2
21:54 67.1 °F 58.1 °F 30.2 in Calm     73% 0 in 0 W/m2
21:59 66.7 °F 58.1 °F 30.2 in Calm     74% 0 in 0 W/m2
22:04 66.6 °F 58.1 °F 30.2 in Calm     74% 0 in 0 W/m2
22:09 66.4 °F 58.3 °F 30.2 in Calm     75% 0 in 0 W/m2
22:14 66 °F 57.9 °F 30.2 in Calm     75% 0 in 0 W/m2
22:19 66 °F 58.3 °F 30.2 in Calm     76% 0 in 0 W/m2
22:24 65.7 °F 58.3 °F 30.2 in Calm     77% 0 in 0 W/m2
22:29 65.5 °F 58.5 °F 30.2 in Calm     78% 0 in 0 W/m2
22:34 65.1 °F 58.1 °F 30.2 in Calm     78% 0 in 0 W/m2
22:39 65.1 °F 58.5 °F 30.2 in Calm     79% 0 in 0 W/m2
22:44 64.9 °F 58.3 °F 30.2 in Calm     79% 0 in 0 W/m2
22:49 64.8 °F 58.5 °F 30.2 in Calm     80% 0 in 0 W/m2
22:54 64.6 °F 58.3 °F 30.2 in Calm     80% 0 in 0 W/m2
22:59 64.4 °F 58.1 °F 30.2 in Calm     80% 0 in 0 W/m2
23:04 64.2 °F 58.3 °F 30.2 in Calm     81% 0 in 0 W/m2
23:09 64 °F 58.1 °F 30.2 in Calm     81% 0 in 0 W/m2
23:14 63.9 °F 57.9 °F 30.2 in Calm     81% 0 in 0 W/m2
23:19 63.9 °F 58.3 °F 30.2 in Calm     82% 0 in 0 W/m2
23:24 63.7 °F 58.1 °F 30.2 in Calm     82% 0 in 0 W/m2
23:29 63.7 °F 58.1 °F 30.2 in NNW 0.9 mph 2 mph 82% 0 in 0 W/m2
23:34 63.7 °F 58.1 °F 30.2 in Calm   1 mph 82% 0 in 0 W/m2
23:39 63.5 °F 57.9 °F 30.2 in SW 0.9 mph 1 mph 82% 0 in 0 W/m2
23:44 63.7 °F 58.1 °F 30.2 in Calm     82% 0 in 0 W/m2
23:49 63.9 °F 57.9 °F 30.2 in Calm   1 mph 81% 0 in 0 W/m2
23:54 64.2 °F 57.9 °F 30.2 in Calm   1 mph 80% 0 in 0 W/m2
23:59 64.6 °F 58.3 °F 30.2 in SSW 2 mph 2 mph 80% 0 in 0 W/m2
Juneau County Weather
Compliments of Weather Underground - 4 mb